createdAt,value
2023-05-01T00:01:54.220Z,38.33
2023-05-01T00:04:23.528Z,38.33
2023-05-01T00:06:52.006Z,38.33
2023-05-01T00:09:20.253Z,38.32
2023-05-01T00:11:49.690Z,38.32
2023-05-01T00:14:17.779Z,38.27
2023-05-01T00:16:46.975Z,38.30
2023-05-01T00:19:18.482Z,38.42
2023-05-01T00:21:48.071Z,38.39
2023-05-01T00:24:17.342Z,38.39
2023-05-01T00:26:45.673Z,38.30
2023-05-01T00:29:15.236Z,38.21
2023-05-01T00:31:43.530Z,38.36
2023-05-01T00:34:11.875Z,38.29
2023-05-01T00:36:39.936Z,38.38
2023-05-01T00:39:08.733Z,38.24
2023-05-01T00:41:37.070Z,38.34
2023-05-01T00:44:05.356Z,38.38
2023-05-01T00:46:35.884Z,38.33
2023-05-01T00:49:04.041Z,38.29
2023-05-01T00:51:33.656Z,38.50
2023-05-01T00:54:02.032Z,38.33
2023-05-01T00:56:30.758Z,38.32
2023-05-01T00:58:58.889Z,38.35
2023-05-01T01:01:27.034Z,38.36
2023-05-01T01:03:56.818Z,38.44
2023-05-01T01:06:33.903Z,38.30
2023-05-01T01:09:14.825Z,38.33
2023-05-01T01:11:54.473Z,38.28
2023-05-01T01:14:28.908Z,38.20
2023-05-01T01:17:01.735Z,38.35
2023-05-01T01:19:58.157Z,38.36
2023-05-01T01:22:28.369Z,38.28
2023-05-01T01:25:23.190Z,38.34
2023-05-01T01:28:07.744Z,38.29
2023-05-01T01:31:06.414Z,38.38
2023-05-01T01:33:55.888Z,38.37
2023-05-01T01:36:34.882Z,38.40
2023-05-01T01:39:11.791Z,38.46
2023-05-01T01:41:41.488Z,38.39
2023-05-01T01:44:20.724Z,38.38
2023-05-01T01:46:51.379Z,38.44
2023-05-01T01:49:23.897Z,38.49
2023-05-01T01:51:54.003Z,38.41
2023-05-01T01:54:27.775Z,38.39
2023-05-01T01:56:58.457Z,38.51
2023-05-01T01:59:27.531Z,38.37
2023-05-01T02:01:57.630Z,38.44
2023-05-01T02:04:28.918Z,38.41
2023-05-01T02:06:59.526Z,38.51
2023-05-01T02:09:29.248Z,38.53
2023-05-01T02:11:57.974Z,38.37
2023-05-01T02:14:28.346Z,38.52
2023-05-01T02:16:58.847Z,38.47
2023-05-01T02:19:28.888Z,38.53
2023-05-01T02:21:59.842Z,38.40
2023-05-01T02:24:29.754Z,38.58
2023-05-01T02:27:02.043Z,38.54
2023-05-01T02:29:30.702Z,38.49
2023-05-01T02:31:58.924Z,38.53
2023-05-01T02:34:28.690Z,38.63
2023-05-01T02:36:56.801Z,38.54
2023-05-01T02:39:24.949Z,38.61
2023-05-01T02:41:56.354Z,38.52
2023-05-01T02:44:27.517Z,38.49
2023-05-01T02:46:57.400Z,38.61
2023-05-01T02:49:25.899Z,38.58
2023-05-01T02:51:55.661Z,38.54
2023-05-01T02:54:23.846Z,38.56
2023-05-01T02:56:52.368Z,38.58
2023-05-01T02:59:20.433Z,38.65
2023-05-01T03:01:48.719Z,38.58
2023-05-01T03:04:16.955Z,38.65
2023-05-01T03:06:45.578Z,38.61
2023-05-01T03:09:15.136Z,38.63
2023-05-01T03:11:43.197Z,38.61
2023-05-01T03:14:11.880Z,38.56
2023-05-01T03:16:40.189Z,38.62
2023-05-01T03:19:08.313Z,38.64
2023-05-01T03:21:37.111Z,38.66
2023-05-01T03:24:05.412Z,38.69
2023-05-01T03:26:35.215Z,38.76
2023-05-01T03:29:03.345Z,38.62
2023-05-01T03:31:31.559Z,38.67
2023-05-01T03:33:59.869Z,38.71
2023-05-01T03:36:28.548Z,38.77
2023-05-01T03:38:56.611Z,38.73
2023-05-01T03:41:25.309Z,38.78
2023-05-01T03:43:55.176Z,38.74
2023-05-01T03:46:24.286Z,38.77
2023-05-01T03:48:52.519Z,38.67
2023-05-01T03:51:20.620Z,38.68
2023-05-01T03:53:48.711Z,38.73
2023-05-01T03:56:16.909Z,38.73
2023-05-01T03:58:45.079Z,38.72
2023-05-01T04:01:14.725Z,38.82
2023-05-01T04:03:42.967Z,38.76
2023-05-01T04:06:11.241Z,38.77
2023-05-01T04:08:39.537Z,38.81
2023-05-01T04:11:07.667Z,38.75
2023-05-01T04:13:35.836Z,38.82
2023-05-01T04:16:04.027Z,38.75
2023-05-01T04:18:33.660Z,38.75
2023-05-01T04:21:01.819Z,38.85
2023-05-01T04:23:29.904Z,38.80
2023-05-01T04:25:57.999Z,38.85
2023-05-01T04:28:26.589Z,38.77
2023-05-01T04:30:54.660Z,38.91
2023-05-01T04:33:22.734Z,38.85
2023-05-01T04:35:52.230Z,38.88
2023-05-01T04:38:20.341Z,38.90
2023-05-01T04:40:48.404Z,38.92
2023-05-01T04:43:16.664Z,38.79
2023-05-01T04:45:44.931Z,38.91
2023-05-01T04:48:13.069Z,38.89
2023-05-01T04:50:41.207Z,38.94
2023-05-01T04:53:10.847Z,38.84
2023-05-01T04:55:38.996Z,38.98
2023-05-01T04:58:07.085Z,38.85
2023-05-01T05:00:35.232Z,38.89
2023-05-01T05:03:03.516Z,38.89
2023-05-01T05:05:31.818Z,38.94
2023-05-01T05:08:00.588Z,39.04
2023-05-01T05:10:30.095Z,38.98
2023-05-01T05:12:58.210Z,38.91
2023-05-01T05:15:26.294Z,39.05
2023-05-01T05:17:56.483Z,38.96
2023-05-01T05:20:24.837Z,39.04
2023-05-01T05:22:52.967Z,38.98
2023-05-01T05:25:21.334Z,39.05
2023-05-01T05:27:50.826Z,39.02
2023-05-01T05:30:19.228Z,39.12
2023-05-01T05:32:48.471Z,39.08
2023-05-01T05:35:16.786Z,39.09
2023-05-01T05:37:46.108Z,39.12
2023-05-01T05:40:14.788Z,39.12
2023-05-01T05:42:42.890Z,39.02
2023-05-01T05:45:13.008Z,39.15
2023-05-01T05:47:41.138Z,39.20
2023-05-01T05:50:10.118Z,39.12
2023-05-01T05:52:38.238Z,39.09
2023-05-01T05:55:07.638Z,39.04
2023-05-01T05:57:37.739Z,39.20
2023-05-01T06:00:06.845Z,39.04
2023-05-01T06:02:36.432Z,39.10
2023-05-01T06:05:04.814Z,39.16
2023-05-01T06:07:33.072Z,39.15
2023-05-01T06:10:04.453Z,39.13
2023-05-01T06:12:34.614Z,39.11
2023-05-01T06:15:05.908Z,39.27
2023-05-01T06:17:34.637Z,39.20
2023-05-01T06:20:06.131Z,39.27
2023-05-01T06:22:34.263Z,39.30
2023-05-01T06:25:02.472Z,39.24
2023-05-01T06:27:30.597Z,39.26
2023-05-01T06:29:58.752Z,39.25
2023-05-01T06:32:27.016Z,39.41
2023-05-01T06:34:55.140Z,39.33
2023-05-01T06:37:24.786Z,39.42
2023-05-01T06:39:52.871Z,39.45
2023-05-01T06:42:21.658Z,39.44
2023-05-01T06:44:49.740Z,39.45
2023-05-01T06:47:17.832Z,39.38
2023-05-01T06:49:45.891Z,39.46
2023-05-01T06:52:13.985Z,39.45
2023-05-01T06:54:43.550Z,39.54
2023-05-01T06:57:11.669Z,39.48
2023-05-01T06:59:40.275Z,39.43
2023-05-01T07:02:08.735Z,39.53
2023-05-01T07:04:36.939Z,39.54
2023-05-01T07:07:05.083Z,39.42
2023-05-01T07:09:33.101Z,39.65
2023-05-01T07:12:03.220Z,39.58
2023-05-01T07:14:31.643Z,39.59
2023-05-01T07:16:59.692Z,39.63
2023-05-01T07:19:27.743Z,39.50
2023-05-01T07:21:55.876Z,39.62
2023-05-01T07:24:24.256Z,39.70
2023-05-01T07:26:52.862Z,39.61
2023-05-01T07:29:22.301Z,39.60
2023-05-01T07:31:50.479Z,39.73
2023-05-01T07:34:19.707Z,39.76
2023-05-01T07:36:47.867Z,39.63
2023-05-01T07:39:17.698Z,39.68
2023-05-01T07:41:45.747Z,39.73
2023-05-01T07:44:13.758Z,39.67
2023-05-01T07:46:43.262Z,39.72
2023-05-01T07:49:11.285Z,39.71
2023-05-01T07:51:39.361Z,39.76
2023-05-01T07:54:07.516Z,39.69
2023-05-01T07:56:35.634Z,39.75
2023-05-01T07:59:03.682Z,39.74
2023-05-01T08:01:31.718Z,39.85
2023-05-01T08:04:01.321Z,39.83
2023-05-01T08:06:29.724Z,39.75
2023-05-01T08:08:57.824Z,39.75
2023-05-01T08:11:26.676Z,39.91
2023-05-01T08:13:54.762Z,39.86
2023-05-01T08:16:22.952Z,39.94
2023-05-01T08:18:51.008Z,39.79
2023-05-01T08:21:20.492Z,39.81
2023-05-01T08:23:48.544Z,39.83
2023-05-01T08:26:16.817Z,39.83
2023-05-01T08:28:44.841Z,39.90
2023-05-01T08:31:12.923Z,39.99
2023-05-01T08:33:42.135Z,39.94
2023-05-01T08:36:11.445Z,39.83
2023-05-01T08:38:40.895Z,39.85
2023-05-01T08:41:10.406Z,39.90
2023-05-01T08:43:38.866Z,39.88
2023-05-01T08:46:11.120Z,39.85
2023-05-01T08:48:42.685Z,39.86
2023-05-01T08:51:13.089Z,40.08
2023-05-01T08:53:43.645Z,39.85
2023-05-01T08:56:13.806Z,39.94
2023-05-01T08:58:43.104Z,39.89
2023-05-01T09:01:14.698Z,40.01
2023-05-01T09:03:44.630Z,40.01
2023-05-01T09:06:13.476Z,40.04
2023-05-01T09:08:43.133Z,40.10
2023-05-01T09:11:13.154Z,39.99
2023-05-01T09:13:41.334Z,39.84
2023-05-01T09:16:09.959Z,40.01
2023-05-01T09:18:38.480Z,40.08
2023-05-01T09:21:07.829Z,40.08
2023-05-01T09:23:37.709Z,40.08
2023-05-01T09:26:08.006Z,40.10
2023-05-01T09:28:43.894Z,40.29
2023-05-01T09:31:26.620Z,40.38
2023-05-01T09:33:56.112Z,40.13
2023-05-01T09:36:25.074Z,40.08
2023-05-01T09:38:53.655Z,40.06
2023-05-01T09:41:23.425Z,40.23
2023-05-01T09:43:52.912Z,40.10
2023-05-01T09:46:22.803Z,40.10
2023-05-01T09:48:56.175Z,40.07
2023-05-01T09:51:26.961Z,40.17
2023-05-01T09:53:57.012Z,40.10
2023-05-01T09:56:27.255Z,40.13
2023-05-01T09:58:56.951Z,40.19
2023-05-01T10:01:40.118Z,40.59
2023-05-01T10:04:09.092Z,40.17
2023-05-01T10:06:38.043Z,40.26
2023-05-01T10:09:10.960Z,40.14
2023-05-01T10:11:57.973Z,40.49
2023-05-01T10:14:28.186Z,40.24
2023-05-01T10:16:58.074Z,40.22
2023-05-01T10:19:26.782Z,40.45
2023-05-01T10:21:55.115Z,40.41
2023-05-01T10:24:23.701Z,40.19
2023-05-01T10:26:53.835Z,40.32
2023-05-01T10:29:25.420Z,40.47
2023-05-01T10:31:54.188Z,40.34
2023-05-01T10:34:26.422Z,40.38
2023-05-01T10:37:01.930Z,40.33
2023-05-01T10:39:33.986Z,40.43
2023-05-01T10:42:06.529Z,40.42
2023-05-01T10:44:36.352Z,40.42
2023-05-01T10:47:43.287Z,40.68
2023-05-01T10:50:12.441Z,40.40
2023-05-01T10:53:19.734Z,40.79
2023-05-01T10:55:49.776Z,40.41
2023-05-01T10:58:52.029Z,40.82
2023-05-01T11:01:33.204Z,40.83
2023-05-01T11:04:04.308Z,40.18
2023-05-01T11:06:33.259Z,40.37
2023-05-01T11:09:02.508Z,40.51
2023-05-01T11:11:50.501Z,40.75
2023-05-01T11:14:19.404Z,40.58
2023-05-01T11:16:49.774Z,40.56
2023-05-01T11:19:47.869Z,40.81
2023-05-01T11:22:17.067Z,40.47
2023-05-01T11:24:45.491Z,40.60
2023-05-01T11:27:17.151Z,40.56
2023-05-01T11:29:49.642Z,40.63
2023-05-01T11:32:27.077Z,40.76
2023-05-01T11:34:56.244Z,40.61
2023-05-01T11:37:44.342Z,40.97
2023-05-01T11:40:23.896Z,40.88
2023-05-01T11:42:53.543Z,40.62
2023-05-01T11:45:21.922Z,40.66
2023-05-01T11:47:52.423Z,40.64
2023-05-01T11:50:22.069Z,40.66
2023-05-01T11:52:53.563Z,40.55
2023-05-01T11:55:22.733Z,40.67
2023-05-01T11:57:52.701Z,40.60
2023-05-01T12:00:28.927Z,40.78
2023-05-01T12:03:00.054Z,40.62
2023-05-01T12:05:29.932Z,40.70
2023-05-01T12:08:09.803Z,41.13
2023-05-01T12:10:39.075Z,40.52
2023-05-01T12:13:11.149Z,40.79
2023-05-01T12:15:41.450Z,40.82
2023-05-01T12:18:12.845Z,40.77
2023-05-01T12:20:42.953Z,40.79
2023-05-01T12:23:13.579Z,40.67
2023-05-01T12:25:43.106Z,40.79
2023-05-01T12:28:13.214Z,40.82
2023-05-01T12:30:42.121Z,40.82
2023-05-01T12:33:14.797Z,40.83
2023-05-01T12:35:45.509Z,40.80
2023-05-01T12:38:18.233Z,40.92
2023-05-01T12:40:55.124Z,41.05
2023-05-01T12:43:24.638Z,40.77
2023-05-01T12:45:54.631Z,40.79
2023-05-01T12:48:25.186Z,40.74
2023-05-01T12:50:55.614Z,40.73
2023-05-01T12:53:25.289Z,40.92
2023-05-01T12:55:55.584Z,40.95
2023-05-01T12:58:24.069Z,40.98
2023-05-01T13:00:53.764Z,40.87
2023-05-01T13:03:26.904Z,40.90
2023-05-01T13:05:57.651Z,40.97
2023-05-01T13:08:30.594Z,40.93
2023-05-01T13:11:00.551Z,40.87
2023-05-01T13:13:30.518Z,40.81
2023-05-01T13:16:06.580Z,41.14
2023-05-01T13:18:44.041Z,40.90
2023-05-01T13:21:14.901Z,40.90
2023-05-01T13:23:43.735Z,40.87
2023-05-01T13:26:12.535Z,40.87
2023-05-01T13:28:46.761Z,40.91
2023-05-01T13:31:16.941Z,40.82
2023-05-01T13:33:46.466Z,40.92
2023-05-01T13:36:25.295Z,40.89
2023-05-01T13:38:57.061Z,40.89
2023-05-01T13:41:27.471Z,40.89
2023-05-01T13:43:57.646Z,40.87
2023-05-01T13:46:27.820Z,40.93
2023-05-01T13:49:00.995Z,40.86
2023-05-01T13:51:29.167Z,40.90
2023-05-01T13:53:58.111Z,41.09
2023-05-01T13:56:27.113Z,41.04
2023-05-01T13:58:55.723Z,41.02
2023-05-01T14:01:24.043Z,40.98
2023-05-01T14:03:52.633Z,40.92
2023-05-01T14:06:24.353Z,40.92
2023-05-01T14:08:54.472Z,40.89
2023-05-01T14:11:22.910Z,41.00
2023-05-01T14:13:52.754Z,40.91
2023-05-01T14:16:26.367Z,40.96
2023-05-01T14:18:57.142Z,41.01
2023-05-01T14:21:28.938Z,41.10
2023-05-01T14:23:58.449Z,41.10
2023-05-01T14:26:27.429Z,41.10
2023-05-01T14:28:55.802Z,41.00
2023-05-01T14:31:32.135Z,40.99
2023-05-01T14:34:02.932Z,41.09
2023-05-01T14:36:32.841Z,40.96
2023-05-01T14:39:02.504Z,41.09
2023-05-01T14:41:31.879Z,41.24
2023-05-01T14:44:01.039Z,41.12
2023-05-01T14:46:32.661Z,41.10
2023-05-01T14:49:02.078Z,41.19
2023-05-01T14:51:32.259Z,41.33
2023-05-01T14:54:01.284Z,41.22
2023-05-01T14:56:30.007Z,41.11
2023-05-01T14:59:00.163Z,41.19
2023-05-01T15:01:28.646Z,41.12
2023-05-01T15:04:00.509Z,41.27
2023-05-01T15:06:30.030Z,41.31
2023-05-01T15:08:58.214Z,41.20
2023-05-01T15:11:26.346Z,41.38
2023-05-01T15:13:55.402Z,41.51
2023-05-01T15:16:23.608Z,41.59
2023-05-01T15:18:51.903Z,41.54
2023-05-01T15:21:21.354Z,41.50
2023-05-01T15:23:49.546Z,41.45
2023-05-01T15:26:17.616Z,41.44
2023-05-01T15:28:45.701Z,41.44
2023-05-01T15:31:13.849Z,41.51
2023-05-01T15:33:42.578Z,41.45
2023-05-01T15:36:11.217Z,41.43
2023-05-01T15:38:40.732Z,41.48
2023-05-01T15:41:08.815Z,41.54
2023-05-01T15:43:37.105Z,41.62
2023-05-01T15:46:06.047Z,41.44
2023-05-01T15:48:34.550Z,41.55
2023-05-01T15:51:02.613Z,41.51
2023-05-01T15:53:30.667Z,41.50
2023-05-01T15:56:00.301Z,41.57
2023-05-01T15:58:28.353Z,41.63
2023-05-01T16:00:56.556Z,41.63
2023-05-01T16:03:24.797Z,41.71
2023-05-01T16:05:52.920Z,41.67
2023-05-01T16:08:21.167Z,41.64
2023-05-01T16:10:49.281Z,41.68
2023-05-01T16:13:18.740Z,41.72
2023-05-01T16:15:47.097Z,41.58
2023-05-01T16:18:21.120Z,41.92
2023-05-01T16:20:53.437Z,41.61
2023-05-01T16:23:22.232Z,41.74
2023-05-01T16:25:50.335Z,41.74
2023-05-01T16:28:19.853Z,41.71
2023-05-01T16:30:47.911Z,41.68
2023-05-01T16:33:19.461Z,41.72
2023-05-01T16:35:49.706Z,41.74
2023-05-01T16:38:18.199Z,41.84
2023-05-01T16:40:48.091Z,41.52
2023-05-01T16:43:16.248Z,41.72
2023-05-01T16:45:46.946Z,41.71
2023-05-01T16:48:25.196Z,42.16
2023-05-01T16:50:53.303Z,41.86
2023-05-01T16:53:21.511Z,41.84
2023-05-01T16:55:49.599Z,41.88
2023-05-01T16:58:17.732Z,41.91
2023-05-01T17:00:47.294Z,41.83
2023-05-01T17:03:16.206Z,41.82
2023-05-01T17:05:44.361Z,41.90
2023-05-01T17:08:12.783Z,42.02
2023-05-01T17:10:40.902Z,41.97
2023-05-01T17:13:09.007Z,41.88
2023-05-01T17:15:37.135Z,41.95
2023-05-01T17:18:06.904Z,41.86
2023-05-01T17:20:35.002Z,42.04
2023-05-01T17:23:03.257Z,41.87
2023-05-01T17:25:31.392Z,41.99
2023-05-01T17:28:00.308Z,42.08
2023-05-01T17:30:28.530Z,42.07
2023-05-01T17:32:58.120Z,42.03
2023-05-01T17:35:27.797Z,42.04
2023-05-01T17:37:57.671Z,42.06
2023-05-01T17:40:25.896Z,41.96
2023-05-01T17:42:54.013Z,41.95
2023-05-01T17:45:22.255Z,42.01
2023-05-01T17:47:50.811Z,42.17
2023-05-01T17:50:19.643Z,42.20
2023-05-01T17:52:49.156Z,42.11
2023-05-01T17:55:18.275Z,42.11
2023-05-01T17:57:47.145Z,42.08
2023-05-01T18:00:16.323Z,42.13
2023-05-01T18:02:45.195Z,42.17
2023-05-01T18:05:13.774Z,42.21
2023-05-01T18:07:42.280Z,42.15
2023-05-01T18:10:12.882Z,42.27
2023-05-01T18:12:41.096Z,42.14
2023-05-01T18:15:10.284Z,42.17
2023-05-01T18:17:38.637Z,42.20
2023-05-01T18:20:07.959Z,42.17
2023-05-01T18:22:36.137Z,42.27
2023-05-01T18:25:04.422Z,42.28
2023-05-01T18:27:34.052Z,42.34
2023-05-01T18:30:02.416Z,42.33
2023-05-01T18:32:46.274Z,42.45
2023-05-01T18:35:15.808Z,42.27
2023-05-01T18:37:44.241Z,42.36
2023-05-01T18:40:13.257Z,42.36
2023-05-01T18:42:43.336Z,42.40
2023-05-01T18:45:11.828Z,42.30
2023-05-01T18:47:39.992Z,42.38
2023-05-01T18:50:09.832Z,42.36
2023-05-01T18:52:38.147Z,42.37
2023-05-01T18:55:07.345Z,42.47
2023-05-01T18:57:36.195Z,42.41
2023-05-01T19:00:07.584Z,42.47
2023-05-01T19:02:35.695Z,42.39
2023-05-01T19:05:04.093Z,42.45
2023-05-01T19:07:32.292Z,42.52
2023-05-01T19:10:00.900Z,42.47
2023-05-01T19:12:29.995Z,42.56
2023-05-01T19:14:58.158Z,42.53
2023-05-01T19:17:27.850Z,42.53
2023-05-01T19:19:56.067Z,42.56
2023-05-01T19:22:24.373Z,42.55
2023-05-01T19:24:52.700Z,42.48
2023-05-01T19:27:21.332Z,42.49
2023-05-01T19:29:50.490Z,42.59
2023-05-01T19:32:18.796Z,42.67
2023-05-01T19:34:48.696Z,42.57
2023-05-01T19:37:17.016Z,42.62
2023-05-01T19:39:45.394Z,42.62
2023-05-01T19:42:13.653Z,42.63
2023-05-01T19:44:41.990Z,42.59
2023-05-01T19:47:10.065Z,42.54
2023-05-01T19:49:38.854Z,42.59
2023-05-01T19:52:09.109Z,42.66
2023-05-01T19:54:37.349Z,42.67
2023-05-01T19:57:05.669Z,42.65
2023-05-01T19:59:36.308Z,42.68
2023-05-01T20:02:05.661Z,42.71
2023-05-01T20:04:34.018Z,42.59
2023-05-01T20:07:04.720Z,42.73
2023-05-01T20:09:34.300Z,42.68
2023-05-01T20:12:03.381Z,42.60
2023-05-01T20:14:33.584Z,42.73
2023-05-01T20:17:02.460Z,42.65
2023-05-01T20:19:31.897Z,42.67
2023-05-01T20:22:00.417Z,42.66
2023-05-01T20:24:28.549Z,42.69
2023-05-01T20:26:59.408Z,42.69
2023-05-01T20:29:28.265Z,42.67
2023-05-01T20:31:56.837Z,42.78
2023-05-01T20:34:25.316Z,42.77
2023-05-01T20:36:53.464Z,42.78
2023-05-01T20:39:21.745Z,42.72
2023-05-01T20:41:49.802Z,42.84
2023-05-01T20:44:19.369Z,42.72
2023-05-01T20:46:48.774Z,42.80
2023-05-01T20:49:16.950Z,42.78
2023-05-01T20:51:45.052Z,42.75
2023-05-01T20:54:13.173Z,42.89
2023-05-01T20:56:41.783Z,42.74
2023-05-01T20:59:09.816Z,42.79
2023-05-01T21:01:39.324Z,42.80
2023-05-01T21:04:07.491Z,42.91
2023-05-01T21:06:36.785Z,42.82
2023-05-01T21:09:06.018Z,42.78
2023-05-01T21:11:34.159Z,42.78
2023-05-01T21:14:02.864Z,42.72
2023-05-01T21:16:31.130Z,42.83
2023-05-01T21:19:00.627Z,42.70
2023-05-01T21:21:29.122Z,42.70
2023-05-01T21:23:57.204Z,42.80
2023-05-01T21:26:25.272Z,42.80
2023-05-01T21:28:53.365Z,42.78
2023-05-01T21:31:21.846Z,42.88
2023-05-01T21:33:50.018Z,42.79
2023-05-01T21:36:19.496Z,42.77
2023-05-01T21:38:47.901Z,42.79
2023-05-01T21:41:16.356Z,42.75
2023-05-01T21:43:45.213Z,42.76
2023-05-01T21:46:17.245Z,42.95
2023-05-01T21:48:50.610Z,42.80
2023-05-01T21:51:20.282Z,42.74
2023-05-01T21:53:48.394Z,42.71
2023-05-01T21:56:16.961Z,42.72
2023-05-01T21:58:45.150Z,42.80
2023-05-01T22:01:14.632Z,42.73
2023-05-01T22:03:44.646Z,42.70
2023-05-01T22:06:12.885Z,42.76
2023-05-01T22:08:42.890Z,42.56
2023-05-01T22:11:11.160Z,42.71
2023-05-01T22:13:39.299Z,42.74
2023-05-01T22:16:08.365Z,42.74
2023-05-01T22:18:36.708Z,42.78
2023-05-01T22:21:05.087Z,42.78
2023-05-01T22:23:33.264Z,42.73
2023-05-01T22:26:02.790Z,42.64
2023-05-01T22:28:30.917Z,42.79
2023-05-01T22:30:59.062Z,42.71
2023-05-01T22:33:27.147Z,42.77
2023-05-01T22:35:55.270Z,42.72
2023-05-01T22:38:23.351Z,42.70
2023-05-01T22:40:51.449Z,42.70
2023-05-01T22:43:21.004Z,42.69
2023-05-01T22:45:49.189Z,42.81
2023-05-01T22:48:17.534Z,42.74
2023-05-01T22:50:45.683Z,42.72
2023-05-01T22:53:13.792Z,42.76
2023-05-01T22:55:41.894Z,42.65
2023-05-01T22:58:09.956Z,42.72
2023-05-01T23:00:39.468Z,42.72
2023-05-01T23:03:08.131Z,42.74
2023-05-01T23:05:36.315Z,42.74
2023-05-01T23:08:04.484Z,42.59
2023-05-01T23:10:33.775Z,42.70
2023-05-01T23:13:02.474Z,42.71
2023-05-01T23:15:30.546Z,42.66
2023-05-01T23:18:00.098Z,42.67
2023-05-01T23:20:28.265Z,42.76
2023-05-01T23:22:56.644Z,42.63
2023-05-01T23:25:27.303Z,42.66
2023-05-01T23:27:56.790Z,42.68
2023-05-01T23:30:25.087Z,42.64
2023-05-01T23:32:53.367Z,42.72
2023-05-01T23:35:24.990Z,42.71
2023-05-01T23:37:53.963Z,42.64
2023-05-01T23:40:22.246Z,42.69
2023-05-01T23:42:50.874Z,42.61
2023-05-01T23:45:19.553Z,42.79
2023-05-01T23:47:47.808Z,42.70
2023-05-01T23:50:16.257Z,42.60
2023-05-01T23:52:46.027Z,42.69
2023-05-01T23:55:14.306Z,42.62
2023-05-01T23:57:42.357Z,42.66
